Hauptseite
METAR-TAF:

METAR-TAF

Flughäfen :

Foz do Iguaçu, Paraná, Brasilien

Flughafen Foz do Iguaçu

Breite: 25-31S, Länge: 054-35W, Höhe: 180 m

Beobachtung

Neuester Wetterbericht von vor 33 Minuten, um 01:00 UTC
Wind 3 kt aus Südost
Temperatur 23°C
Luftfeuchtigkeit 94%
Luftdruck 1013 hPa
Sichtweite 10 km oder mehr
keine Wolken unter 1500 m und keine Kumulonimbus oder Gewitterwolken

METAR: SBFI 250100Z 14003KT CAVOK 23/22 Q1013

Zeit: 22:33 (01:33 UTC)

Prognose

Neuester Wetterbericht von vor 3 Stunden und 18 Minuten, um 22:15 UTC
Gültige Prognose vom 25 um 00 UTC bis 25 um 24 UTC
Wind 4 kt aus Südost
Sichtweite 10 km oder mehr
Leicht bewölkt in der Höhe von 3500 ft
Übergehend zu
vom 25 um 01 UTC bis 25 um 03 UTC
Sichtweite 10 km oder mehr
keine Wolken unter 1500 m und keine Kumulonimbus oder Gewitterwolken

TAF: SBFI 242215Z 2500/2524 14004KT 9999 FEW035 TN20/2508Z TX33/2518Z BECMG 2501/2503 CAVOK RMK PCX

Wetterbeobachtungen und Prognosen von mehr als 4000 Flughäfen (METAR und TAF Bericht).

Die verfügbaren Stationen werden durch gelbe und rote Markierungen auf der Karte dargestellt.

Führen Sie die Maus auf sie, um den Namen der Station zu sehen.

Darauf klicken, um die Beobachtung von Wetterbeobachtungen und Prognosen zu sehen.

Um die Karte zu ändern : klicken Sie auf den grünen Tasten mit einem schwarzen Kreuz Zum Vergrößern, auf den grünen Button mit einem Gedankenstrich zu verkleinern, oder auf die grünen Pfeile für benachbarte Karten.


METAR-TAF: